sensor_id;sensor_type;location;lat;lon;timestamp;temperature;humidity
46608;DHT22;32330;51.936;7.184;2023-05-25T00:00:50;10.70;99.90
46608;DHT22;32330;51.936;7.184;2023-05-25T00:03:17;10.60;99.90
46608;DHT22;32330;51.936;7.184;2023-05-25T00:05:45;10.60;99.90
46608;DHT22;32330;51.936;7.184;2023-05-25T00:08:13;10.50;99.90
46608;DHT22;32330;51.936;7.184;2023-05-25T00:10:40;10.50;99.90
46608;DHT22;32330;51.936;7.184;2023-05-25T00:13:06;10.50;99.90
46608;DHT22;32330;51.936;7.184;2023-05-25T00:15:36;10.40;99.90
46608;DHT22;32330;51.936;7.184;2023-05-25T00:18:02;10.40;99.90
46608;DHT22;32330;51.936;7.184;2023-05-25T00:20:29;10.40;99.90
46608;DHT22;32330;51.936;7.184;2023-05-25T00:22:57;10.40;99.90
46608;DHT22;32330;51.936;7.184;2023-05-25T00:25:26;10.30;99.90
46608;DHT22;32330;51.936;7.184;2023-05-25T00:27:53;10.30;99.90
46608;DHT22;32330;51.936;7.184;2023-05-25T00:30:20;10.20;99.90
46608;DHT22;32330;51.936;7.184;2023-05-25T00:32:48;10.20;99.90
46608;DHT22;32330;51.936;7.184;2023-05-25T00:35:16;10.20;99.90
46608;DHT22;32330;51.936;7.184;2023-05-25T00:37:42;10.10;99.90
46608;DHT22;32330;51.936;7.184;2023-05-25T00:40:11;10.00;99.90
46608;DHT22;32330;51.936;7.184;2023-05-25T00:42:40;10.00;99.90
46608;DHT22;32330;51.936;7.184;2023-05-25T00:45:07;10.00;99.90
46608;DHT22;32330;51.936;7.184;2023-05-25T00:47:34;10.00;99.90
46608;DHT22;32330;51.936;7.184;2023-05-25T00:50:02;10.10;99.90
46608;DHT22;32330;51.936;7.184;2023-05-25T00:52:32;10.00;99.90
46608;DHT22;32330;51.936;7.184;2023-05-25T00:54:59;9.90;99.90
46608;DHT22;32330;51.936;7.184;2023-05-25T00:57:28;9.90;99.90
46608;DHT22;32330;51.936;7.184;2023-05-25T00:59:58;9.90;99.90
46608;DHT22;32330;51.936;7.184;2023-05-25T01:02:26;9.90;99.90
46608;DHT22;32330;51.936;7.184;2023-05-25T01:04:55;9.90;99.90
46608;DHT22;32330;51.936;7.184;2023-05-25T01:07:25;9.80;99.90
46608;DHT22;32330;51.936;7.184;2023-05-25T01:10:00;9.80;99.90
46608;DHT22;32330;51.936;7.184;2023-05-25T01:12:28;9.80;99.90
46608;DHT22;32330;51.936;7.184;2023-05-25T01:14:55;9.70;99.90
46608;DHT22;32330;51.936;7.184;2023-05-25T01:17:23;9.70;99.90
46608;DHT22;32330;51.936;7.184;2023-05-25T01:19:53;9.70;99.90
46608;DHT22;32330;51.936;7.184;2023-05-25T01:22:26;9.60;99.90
46608;DHT22;32330;51.936;7.184;2023-05-25T01:25:00;9.60;99.90
46608;DHT22;32330;51.936;7.184;2023-05-25T01:27:30;9.60;99.90
46608;DHT22;32330;51.936;7.184;2023-05-25T01:29:58;9.60;99.90
46608;DHT22;32330;51.936;7.184;2023-05-25T01:32:26;9.60;99.90
46608;DHT22;32330;51.936;7.184;2023-05-25T01:34:53;9.60;99.90
46608;DHT22;32330;51.936;7.184;2023-05-25T01:37:21;9.50;99.90
46608;DHT22;32330;51.936;7.184;2023-05-25T01:39:52;9.50;99.90
46608;DHT22;32330;51.936;7.184;2023-05-25T01:42:19;9.40;99.90
46608;DHT22;32330;51.936;7.184;2023-05-25T01:44:45;9.40;99.90
46608;DHT22;32330;51.936;7.184;2023-05-25T01:47:14;9.40;99.90
46608;DHT22;32330;51.936;7.184;2023-05-25T01:49:43;9.30;99.90
46608;DHT22;32330;51.936;7.184;2023-05-25T01:52:12;9.40;99.90
46608;DHT22;32330;51.936;7.184;2023-05-25T01:54:42;9.30;99.90
46608;DHT22;32330;51.936;7.184;2023-05-25T01:57:13;9.20;99.90
46608;DHT22;32330;51.936;7.184;2023-05-25T01:59:41;9.20;99.90
46608;DHT22;32330;51.936;7.184;2023-05-25T02:02:08;9.20;99.90
46608;DHT22;32330;51.936;7.184;2023-05-25T02:04:36;9.20;99.90
46608;DHT22;32330;51.936;7.184;2023-05-25T02:07:03;9.00;99.90
46608;DHT22;32330;51.936;7.184;2023-05-25T02:09:30;9.10;99.90
46608;DHT22;32330;51.936;7.184;2023-05-25T02:11:57;9.00;99.90
46608;DHT22;32330;51.936;7.184;2023-05-25T02:14:25;9.00;99.90
46608;DHT22;32330;51.936;7.184;2023-05-25T02:16:53;9.00;99.90
46608;DHT22;32330;51.936;7.184;2023-05-25T02:19:19;9.00;99.90
46608;DHT22;32330;51.936;7.184;2023-05-25T02:21:46;8.90;99.90
46608;DHT22;32330;51.936;7.184;2023-05-25T02:24:13;8.90;99.90
46608;DHT22;32330;51.936;7.184;2023-05-25T02:26:40;8.90;99.90
46608;DHT22;32330;51.936;7.184;2023-05-25T02:29:07;8.80;99.90
46608;DHT22;32330;51.936;7.184;2023-05-25T02:31:35;8.80;99.90
46608;DHT22;32330;51.936;7.184;2023-05-25T02:34:02;8.80;99.90
46608;DHT22;32330;51.936;7.184;2023-05-25T02:36:29;8.80;99.90
46608;DHT22;32330;51.936;7.184;2023-05-25T02:38:56;8.70;99.90
46608;DHT22;32330;51.936;7.184;2023-05-25T02:41:23;8.70;99.90
46608;DHT22;32330;51.936;7.184;2023-05-25T02:43:50;8.70;99.90
46608;DHT22;32330;51.936;7.184;2023-05-25T02:46:17;8.60;99.90
46608;DHT22;32330;51.936;7.184;2023-05-25T02:48:46;8.60;99.90
46608;DHT22;32330;51.936;7.184;2023-05-25T02:51:13;8.60;99.90
46608;DHT22;32330;51.936;7.184;2023-05-25T02:53:40;8.50;99.90
46608;DHT22;32330;51.936;7.184;2023-05-25T02:56:07;8.60;99.90
46608;DHT22;32330;51.936;7.184;2023-05-25T02:58:35;8.50;99.90
46608;DHT22;32330;51.936;7.184;2023-05-25T03:01:12;8.50;99.90
46608;DHT22;32330;51.936;7.184;2023-05-25T03:03:45;8.50;99.90
46608;DHT22;32330;51.936;7.184;2023-05-25T03:06:12;8.50;99.90
46608;DHT22;32330;51.936;7.184;2023-05-25T03:08:39;8.50;99.90
46608;DHT22;32330;51.936;7.184;2023-05-25T03:11:06;8.50;99.90
46608;DHT22;32330;51.936;7.184;2023-05-25T03:13:34;8.40;99.90
46608;DHT22;32330;51.936;7.184;2023-05-25T03:16:01;8.50;99.90
46608;DHT22;32330;51.936;7.184;2023-05-25T03:18:28;8.50;99.90
46608;DHT22;32330;51.936;7.184;2023-05-25T03:20:56;8.40;99.80
46608;DHT22;32330;51.936;7.184;2023-05-25T03:23:23;8.40;99.90
46608;DHT22;32330;51.936;7.184;2023-05-25T03:25:53;8.40;99.90
46608;DHT22;32330;51.936;7.184;2023-05-25T03:28:20;8.40;99.90
46608;DHT22;32330;51.936;7.184;2023-05-25T03:30:47;8.40;99.90
46608;DHT22;32330;51.936;7.184;2023-05-25T03:33:15;8.50;99.90
46608;DHT22;32330;51.936;7.184;2023-05-25T03:35:45;8.40;99.90
46608;DHT22;32330;51.936;7.184;2023-05-25T03:38:14;8.40;99.90
46608;DHT22;32330;51.936;7.184;2023-05-25T03:40:41;8.40;99.90
46608;DHT22;32330;51.936;7.184;2023-05-25T03:43:08;8.40;99.90
46608;DHT22;32330;51.936;7.184;2023-05-25T03:45:35;8.40;99.90
46608;DHT22;32330;51.936;7.184;2023-05-25T03:48:02;8.50;99.90
46608;DHT22;32330;51.936;7.184;2023-05-25T03:50:30;8.50;99.90
46608;DHT22;32330;51.936;7.184;2023-05-25T03:52:57;8.50;99.90
46608;DHT22;32330;51.936;7.184;2023-05-25T03:55:25;8.50;99.90
46608;DHT22;32330;51.936;7.184;2023-05-25T03:57:52;8.50;99.90
46608;DHT22;32330;51.936;7.184;2023-05-25T04:00:20;8.60;99.90
46608;DHT22;32330;51.936;7.184;2023-05-25T04:02:48;8.50;99.90
46608;DHT22;32330;51.936;7.184;2023-05-25T04:05:15;8.50;99.90
46608;DHT22;32330;51.936;7.184;2023-05-25T04:07:41;8.60;99.90
46608;DHT22;32330;51.936;7.184;2023-05-25T04:10:09;8.50;99.90
46608;DHT22;32330;51.936;7.184;2023-05-25T04:12:39;8.60;99.90
46608;DHT22;32330;51.936;7.184;2023-05-25T04:15:07;8.60;99.90
46608;DHT22;32330;51.936;7.184;2023-05-25T04:17:44;8.60;99.90
46608;DHT22;32330;51.936;7.184;2023-05-25T04:20:11;8.60;99.90
46608;DHT22;32330;51.936;7.184;2023-05-25T04:22:38;8.60;99.90
46608;DHT22;32330;51.936;7.184;2023-05-25T04:25:05;8.70;99.90
46608;DHT22;32330;51.936;7.184;2023-05-25T04:27:32;8.70;99.90
46608;DHT22;32330;51.936;7.184;2023-05-25T04:30:01;8.70;99.90
46608;DHT22;32330;51.936;7.184;2023-05-25T04:32:47;8.80;99.90
46608;DHT22;32330;51.936;7.184;2023-05-25T04:35:24;8.80;99.90
46608;DHT22;32330;51.936;7.184;2023-05-25T04:37:52;8.80;99.90
46608;DHT22;32330;51.936;7.184;2023-05-25T04:40:22;8.80;99.90
46608;DHT22;32330;51.936;7.184;2023-05-25T04:42:49;8.90;99.90
46608;DHT22;32330;51.936;7.184;2023-05-25T04:45:21;8.90;99.90
46608;DHT22;32330;51.936;7.184;2023-05-25T04:47:49;8.90;99.90
46608;DHT22;32330;51.936;7.184;2023-05-25T04:50:17;8.90;99.90
46608;DHT22;32330;51.936;7.184;2023-05-25T04:52:44;9.00;99.90
46608;DHT22;32330;51.936;7.184;2023-05-25T04:55:11;9.10;99.90
46608;DHT22;32330;51.936;7.184;2023-05-25T04:57:40;9.10;99.90
46608;DHT22;32330;51.936;7.184;2023-05-25T05:00:08;9.20;99.90
46608;DHT22;32330;51.936;7.184;2023-05-25T05:02:39;9.30;99.90
46608;DHT22;32330;51.936;7.184;2023-05-25T05:05:07;9.30;99.90
46608;DHT22;32330;51.936;7.184;2023-05-25T05:07:34;9.30;99.90
46608;DHT22;32330;51.936;7.184;2023-05-25T05:10:01;9.40;99.90
46608;DHT22;32330;51.936;7.184;2023-05-25T05:12:30;9.50;99.90
46608;DHT22;32330;51.936;7.184;2023-05-25T05:14:59;9.50;99.90
46608;DHT22;32330;51.936;7.184;2023-05-25T05:17:26;9.60;99.90
46608;DHT22;32330;51.936;7.184;2023-05-25T05:19:56;9.80;99.90
46608;DHT22;32330;51.936;7.184;2023-05-25T05:22:23;9.80;99.90
46608;DHT22;32330;51.936;7.184;2023-05-25T05:24:50;10.00;99.90
46608;DHT22;32330;51.936;7.184;2023-05-25T05:27:22;10.10;99.60
46608;DHT22;32330;51.936;7.184;2023-05-25T05:29:55;10.20;98.30
46608;DHT22;32330;51.936;7.184;2023-05-25T05:32:22;10.30;97.80
46608;DHT22;32330;51.936;7.184;2023-05-25T05:34:49;10.50;98.40
46608;DHT22;32330;51.936;7.184;2023-05-25T05:37:37;10.60;97.20
46608;DHT22;32330;51.936;7.184;2023-05-25T05:40:05;10.70;95.40
46608;DHT22;32330;51.936;7.184;2023-05-25T05:42:34;10.80;95.70
46608;DHT22;32330;51.936;7.184;2023-05-25T05:45:01;11.00;95.00
46608;DHT22;32330;51.936;7.184;2023-05-25T05:47:28;11.00;93.10
46608;DHT22;32330;51.936;7.184;2023-05-25T05:49:54;11.10;92.80
46608;DHT22;32330;51.936;7.184;2023-05-25T05:52:22;11.20;93.10
46608;DHT22;32330;51.936;7.184;2023-05-25T05:54:50;11.30;91.90
46608;DHT22;32330;51.936;7.184;2023-05-25T05:57:17;11.40;93.10
46608;DHT22;32330;51.936;7.184;2023-05-25T05:59:44;11.50;91.90
46608;DHT22;32330;51.936;7.184;2023-05-25T06:02:10;11.70;87.50
46608;DHT22;32330;51.936;7.184;2023-05-25T06:04:40;11.70;84.70
46608;DHT22;32330;51.936;7.184;2023-05-25T06:07:07;11.80;82.80
46608;DHT22;32330;51.936;7.184;2023-05-25T06:09:34;11.90;83.80
46608;DHT22;32330;51.936;7.184;2023-05-25T06:12:04;11.90;81.60
46608;DHT22;32330;51.936;7.184;2023-05-25T06:14:34;11.90;78.50
46608;DHT22;32330;51.936;7.184;2023-05-25T06:17:02;12.00;74.00
46608;DHT22;32330;51.936;7.184;2023-05-25T06:19:29;12.00;67.90
46608;DHT22;32330;51.936;7.184;2023-05-25T06:21:56;12.00;68.20
46608;DHT22;32330;51.936;7.184;2023-05-25T06:24:23;12.20;69.80
46608;DHT22;32330;51.936;7.184;2023-05-25T06:26:50;12.40;69.20
46608;DHT22;32330;51.936;7.184;2023-05-25T06:29:20;12.50;60.40
46608;DHT22;32330;51.936;7.184;2023-05-25T06:31:47;12.60;51.60
46608;DHT22;32330;51.936;7.184;2023-05-25T06:34:14;12.80;47.70
46608;DHT22;32330;51.936;7.184;2023-05-25T06:36:41;12.80;48.20
46608;DHT22;32330;51.936;7.184;2023-05-25T06:39:09;13.00;42.10
46608;DHT22;32330;51.936;7.184;2023-05-25T06:41:36;13.00;40.70
46608;DHT22;32330;51.936;7.184;2023-05-25T06:44:04;13.00;36.30
46608;DHT22;32330;51.936;7.184;2023-05-25T06:46:40;13.20;39.80
46608;DHT22;32330;51.936;7.184;2023-05-25T06:49:08;13.30;36.20
46608;DHT22;32330;51.936;7.184;2023-05-25T06:51:35;13.30;38.80
46608;DHT22;32330;51.936;7.184;2023-05-25T06:54:02;13.40;33.80
46608;DHT22;32330;51.936;7.184;2023-05-25T06:56:28;13.50;27.60
46608;DHT22;32330;51.936;7.184;2023-05-25T06:58:55;13.70;23.30
46608;DHT22;32330;51.936;7.184;2023-05-25T07:01:22;13.80;20.80
46608;DHT22;32330;51.936;7.184;2023-05-25T07:03:50;13.80;11.40
46608;DHT22;32330;51.936;7.184;2023-05-25T07:06:17;14.00;7.40
46608;DHT22;32330;51.936;7.184;2023-05-25T07:08:44;14.10;11.50
46608;DHT22;32330;51.936;7.184;2023-05-25T07:11:11;14.10;35.00
46608;DHT22;32330;51.936;7.184;2023-05-25T07:13:38;13.80;99.90
46608;DHT22;32330;51.936;7.184;2023-05-25T07:16:05;13.90;99.90
46608;DHT22;32330;51.936;7.184;2023-05-25T07:18:32;13.80;99.90
46608;DHT22;32330;51.936;7.184;2023-05-25T07:21:03;14.00;99.90
46608;DHT22;32330;51.936;7.184;2023-05-25T07:23:30;14.00;99.90
46608;DHT22;32330;51.936;7.184;2023-05-25T07:25:57;14.10;99.90
46608;DHT22;32330;51.936;7.184;2023-05-25T07:28:24;14.20;99.90
46608;DHT22;32330;51.936;7.184;2023-05-25T07:30:51;14.30;99.90
46608;DHT22;32330;51.936;7.184;2023-05-25T07:33:18;14.50;99.90
46608;DHT22;32330;51.936;7.184;2023-05-25T07:35:45;14.60;99.90
46608;DHT22;32330;51.936;7.184;2023-05-25T07:38:13;14.70;99.90
46608;DHT22;32330;51.936;7.184;2023-05-25T07:40:40;14.80;99.90
46608;DHT22;32330;51.936;7.184;2023-05-25T07:43:07;14.90;99.90
46608;DHT22;32330;51.936;7.184;2023-05-25T07:45:34;15.00;99.90
46608;DHT22;32330;51.936;7.184;2023-05-25T07:48:01;15.20;99.90
46608;DHT22;32330;51.936;7.184;2023-05-25T07:50:27;15.30;99.90
46608;DHT22;32330;51.936;7.184;2023-05-25T07:52:54;15.20;99.90
46608;DHT22;32330;51.936;7.184;2023-05-25T07:55:25;15.10;99.90
46608;DHT22;32330;51.936;7.184;2023-05-25T07:57:52;15.20;99.90
46608;DHT22;32330;51.936;7.184;2023-05-25T08:00:19;15.20;99.90
46608;DHT22;32330;51.936;7.184;2023-05-25T08:02:47;15.10;99.90
46608;DHT22;32330;51.936;7.184;2023-05-25T08:05:14;15.20;99.90
46608;DHT22;32330;51.936;7.184;2023-05-25T08:07:41;15.30;99.90
46608;DHT22;32330;51.936;7.184;2023-05-25T08:10:08;15.40;99.90
46608;DHT22;32330;51.936;7.184;2023-05-25T08:12:36;15.40;99.90
46608;DHT22;32330;51.936;7.184;2023-05-25T08:15:04;15.20;99.90
46608;DHT22;32330;51.936;7.184;2023-05-25T08:17:31;15.20;99.90
46608;DHT22;32330;51.936;7.184;2023-05-25T08:19:58;15.20;99.90
46608;DHT22;32330;51.936;7.184;2023-05-25T08:22:25;15.60;99.90
46608;DHT22;32330;51.936;7.184;2023-05-25T08:24:51;15.80;99.90
46608;DHT22;32330;51.936;7.184;2023-05-25T08:27:18;15.70;99.90
46608;DHT22;32330;51.936;7.184;2023-05-25T08:29:46;16.00;99.90
46608;DHT22;32330;51.936;7.184;2023-05-25T08:32:13;16.10;99.90
46608;DHT22;32330;51.936;7.184;2023-05-25T08:34:40;15.90;99.90
46608;DHT22;32330;51.936;7.184;2023-05-25T08:37:07;15.90;99.90
46608;DHT22;32330;51.936;7.184;2023-05-25T08:39:34;16.10;99.90
46608;DHT22;32330;51.936;7.184;2023-05-25T08:42:01;16.00;99.90
46608;DHT22;32330;51.936;7.184;2023-05-25T08:44:28;15.90;99.90
46608;DHT22;32330;51.936;7.184;2023-05-25T08:46:57;16.00;99.90
46608;DHT22;32330;51.936;7.184;2023-05-25T08:49:24;16.30;99.90
46608;DHT22;32330;51.936;7.184;2023-05-25T08:51:53;16.50;99.90
46608;DHT22;32330;51.936;7.184;2023-05-25T08:54:21;16.60;99.90
46608;DHT22;32330;51.936;7.184;2023-05-25T08:56:49;16.40;99.90
46608;DHT22;32330;51.936;7.184;2023-05-25T08:59:24;16.20;99.90
46608;DHT22;32330;51.936;7.184;2023-05-25T09:01:52;16.30;99.90
46608;DHT22;32330;51.936;7.184;2023-05-25T09:04:23;16.00;99.90
46608;DHT22;32330;51.936;7.184;2023-05-25T09:06:49;16.00;99.90
46608;DHT22;32330;51.936;7.184;2023-05-25T09:09:16;16.30;99.90
46608;DHT22;32330;51.936;7.184;2023-05-25T09:11:44;16.30;99.90
46608;DHT22;32330;51.936;7.184;2023-05-25T09:14:11;16.30;99.90
46608;DHT22;32330;51.936;7.184;2023-05-25T09:16:37;16.60;99.90
46608;DHT22;32330;51.936;7.184;2023-05-25T09:19:05;16.70;99.90
46608;DHT22;32330;51.936;7.184;2023-05-25T09:21:33;16.70;99.90
46608;DHT22;32330;51.936;7.184;2023-05-25T09:24:01;16.80;99.90
46608;DHT22;32330;51.936;7.184;2023-05-25T09:26:28;16.70;99.90
46608;DHT22;32330;51.936;7.184;2023-05-25T09:28:55;16.70;99.90
46608;DHT22;32330;51.936;7.184;2023-05-25T09:31:22;16.70;99.90
46608;DHT22;32330;51.936;7.184;2023-05-25T09:33:50;16.90;99.90
46608;DHT22;32330;51.936;7.184;2023-05-25T09:36:20;17.10;99.90
46608;DHT22;32330;51.936;7.184;2023-05-25T09:38:49;17.20;99.90
46608;DHT22;32330;51.936;7.184;2023-05-25T09:41:17;17.30;99.90
46608;DHT22;32330;51.936;7.184;2023-05-25T09:43:45;17.50;99.90
46608;DHT22;32330;51.936;7.184;2023-05-25T09:46:12;17.50;99.90
46608;DHT22;32330;51.936;7.184;2023-05-25T09:48:42;17.50;99.90
46608;DHT22;32330;51.936;7.184;2023-05-25T09:51:11;17.60;99.90
46608;DHT22;32330;51.936;7.184;2023-05-25T09:53:38;17.60;99.90
46608;DHT22;32330;51.936;7.184;2023-05-25T09:56:06;17.70;99.90
46608;DHT22;32330;51.936;7.184;2023-05-25T09:58:33;17.80;99.90
46608;DHT22;32330;51.936;7.184;2023-05-25T10:01:00;17.90;99.90
46608;DHT22;32330;51.936;7.184;2023-05-25T10:03:29;17.90;99.90
46608;DHT22;32330;51.936;7.184;2023-05-25T10:05:56;18.10;99.50
46608;DHT22;32330;51.936;7.184;2023-05-25T10:08:23;18.00;99.60
46608;DHT22;32330;51.936;7.184;2023-05-25T10:10:50;18.40;98.80
46608;DHT22;32330;51.936;7.184;2023-05-25T10:13:19;18.40;97.10
46608;DHT22;32330;51.936;7.184;2023-05-25T10:15:47;18.10;96.70
46608;DHT22;32330;51.936;7.184;2023-05-25T10:18:18;18.10;97.20
46608;DHT22;32330;51.936;7.184;2023-05-25T10:20:48;17.90;97.00
46608;DHT22;32330;51.936;7.184;2023-05-25T10:23:16;18.20;96.60
46608;DHT22;32330;51.936;7.184;2023-05-25T10:25:46;18.30;96.10
46608;DHT22;32330;51.936;7.184;2023-05-25T10:28:13;18.30;96.00
46608;DHT22;32330;51.936;7.184;2023-05-25T10:30:44;18.50;96.50
46608;DHT22;32330;51.936;7.184;2023-05-25T10:33:11;18.70;95.80
46608;DHT22;32330;51.936;7.184;2023-05-25T10:35:39;18.70;96.10
46608;DHT22;32330;51.936;7.184;2023-05-25T10:38:06;19.40;95.90
46608;DHT22;32330;51.936;7.184;2023-05-25T10:40:33;19.60;95.10
46608;DHT22;32330;51.936;7.184;2023-05-25T10:43:01;19.90;95.30
46608;DHT22;32330;51.936;7.184;2023-05-25T10:45:28;20.20;94.50
46608;DHT22;32330;51.936;7.184;2023-05-25T10:47:56;20.30;92.20
46608;DHT22;32330;51.936;7.184;2023-05-25T10:50:23;20.30;93.10
46608;DHT22;32330;51.936;7.184;2023-05-25T10:52:58;20.50;92.90
46608;DHT22;32330;51.936;7.184;2023-05-25T10:55:26;20.60;92.00
46608;DHT22;32330;51.936;7.184;2023-05-25T10:58:09;20.40;92.20
46608;DHT22;32330;51.936;7.184;2023-05-25T11:00:36;19.90;92.20
46608;DHT22;32330;51.936;7.184;2023-05-25T11:03:05;20.50;92.10
46608;DHT22;32330;51.936;7.184;2023-05-25T11:05:32;20.50;91.60
46608;DHT22;32330;51.936;7.184;2023-05-25T11:08:00;20.50;91.70
46608;DHT22;32330;51.936;7.184;2023-05-25T11:10:43;20.40;91.90
46608;DHT22;32330;51.936;7.184;2023-05-25T11:13:20;20.50;92.40
46608;DHT22;32330;51.936;7.184;2023-05-25T11:15:47;20.40;91.60
46608;DHT22;32330;51.936;7.184;2023-05-25T11:18:15;20.50;92.00
46608;DHT22;32330;51.936;7.184;2023-05-25T11:20:42;20.40;91.90
46608;DHT22;32330;51.936;7.184;2023-05-25T11:23:20;20.40;92.20
46608;DHT22;32330;51.936;7.184;2023-05-25T11:25:47;20.00;91.70
46608;DHT22;32330;51.936;7.184;2023-05-25T11:28:14;20.70;92.00
46608;DHT22;32330;51.936;7.184;2023-05-25T11:30:41;20.20;91.40
46608;DHT22;32330;51.936;7.184;2023-05-25T11:33:08;20.40;91.10
46608;DHT22;32330;51.936;7.184;2023-05-25T11:35:36;20.50;90.40
46608;DHT22;32330;51.936;7.184;2023-05-25T11:38:04;20.10;91.60
46608;DHT22;32330;51.936;7.184;2023-05-25T11:40:31;20.10;91.60
46608;DHT22;32330;51.936;7.184;2023-05-25T11:42:58;20.40;92.00
46608;DHT22;32330;51.936;7.184;2023-05-25T11:45:30;20.30;91.00
46608;DHT22;32330;51.936;7.184;2023-05-25T11:47:57;20.00;90.80
46608;DHT22;32330;51.936;7.184;2023-05-25T11:50:24;19.60;91.80
46608;DHT22;32330;51.936;7.184;2023-05-25T11:52:54;19.60;92.10
46608;DHT22;32330;51.936;7.184;2023-05-25T11:55:21;19.60;92.20
46608;DHT22;32330;51.936;7.184;2023-05-25T11:57:54;19.90;91.80
46608;DHT22;32330;51.936;7.184;2023-05-25T12:00:23;20.10;91.50
46608;DHT22;32330;51.936;7.184;2023-05-25T12:02:50;20.20;90.30
46608;DHT22;32330;51.936;7.184;2023-05-25T12:05:17;20.70;88.90
46608;DHT22;32330;51.936;7.184;2023-05-25T12:07:43;21.20;89.60
46608;DHT22;32330;51.936;7.184;2023-05-25T12:10:13;21.20;88.90
46608;DHT22;32330;51.936;7.184;2023-05-25T12:12:41;21.10;88.00
46608;DHT22;32330;51.936;7.184;2023-05-25T12:15:08;20.80;87.90
46608;DHT22;32330;51.936;7.184;2023-05-25T12:17:36;20.60;87.10
46608;DHT22;32330;51.936;7.184;2023-05-25T12:20:04;20.50;90.00
46608;DHT22;32330;51.936;7.184;2023-05-25T12:22:32;20.40;90.10
46608;DHT22;32330;51.936;7.184;2023-05-25T12:24:59;20.50;90.40
46608;DHT22;32330;51.936;7.184;2023-05-25T12:27:27;20.20;89.60
46608;DHT22;32330;51.936;7.184;2023-05-25T12:29:55;20.20;90.00
46608;DHT22;32330;51.936;7.184;2023-05-25T12:32:23;21.00;87.60
46608;DHT22;32330;51.936;7.184;2023-05-25T12:34:50;21.60;86.20
46608;DHT22;32330;51.936;7.184;2023-05-25T12:37:18;22.40;83.50
46608;DHT22;32330;51.936;7.184;2023-05-25T12:39:45;21.80;83.70
46608;DHT22;32330;51.936;7.184;2023-05-25T12:42:13;21.60;84.60
46608;DHT22;32330;51.936;7.184;2023-05-25T12:44:42;21.50;85.00
46608;DHT22;32330;51.936;7.184;2023-05-25T12:47:10;21.50;85.60
46608;DHT22;32330;51.936;7.184;2023-05-25T12:49:37;21.00;86.00
46608;DHT22;32330;51.936;7.184;2023-05-25T12:52:04;21.10;87.30
46608;DHT22;32330;51.936;7.184;2023-05-25T12:54:32;21.70;84.30
46608;DHT22;32330;51.936;7.184;2023-05-25T12:56:59;22.30;83.90
46608;DHT22;32330;51.936;7.184;2023-05-25T12:59:27;22.10;84.40
46608;DHT22;32330;51.936;7.184;2023-05-25T13:01:56;22.00;83.00
46608;DHT22;32330;51.936;7.184;2023-05-25T13:04:22;22.40;84.30
46608;DHT22;32330;51.936;7.184;2023-05-25T13:06:49;22.00;83.60
46608;DHT22;32330;51.936;7.184;2023-05-25T13:09:16;21.90;83.00
46608;DHT22;32330;51.936;7.184;2023-05-25T13:11:43;21.90;85.10
46608;DHT22;32330;51.936;7.184;2023-05-25T13:14:10;22.10;84.50
46608;DHT22;32330;51.936;7.184;2023-05-25T13:16:36;21.90;82.90
46608;DHT22;32330;51.936;7.184;2023-05-25T13:19:05;22.20;82.70
46608;DHT22;32330;51.936;7.184;2023-05-25T13:21:32;22.10;83.10
46608;DHT22;32330;51.936;7.184;2023-05-25T13:23:59;21.90;83.40
46608;DHT22;32330;51.936;7.184;2023-05-25T13:26:26;21.90;84.10
46608;DHT22;32330;51.936;7.184;2023-05-25T13:28:52;21.60;84.20
46608;DHT22;32330;51.936;7.184;2023-05-25T13:31:19;21.50;83.80
46608;DHT22;32330;51.936;7.184;2023-05-25T13:33:46;21.50;84.00
46608;DHT22;32330;51.936;7.184;2023-05-25T13:36:14;21.70;84.30
46608;DHT22;32330;51.936;7.184;2023-05-25T13:38:41;22.50;84.30
46608;DHT22;32330;51.936;7.184;2023-05-25T13:41:08;22.90;80.70
46608;DHT22;32330;51.936;7.184;2023-05-25T13:43:35;23.30;80.40
46608;DHT22;32330;51.936;7.184;2023-05-25T13:46:03;23.00;79.90
46608;DHT22;32330;51.936;7.184;2023-05-25T13:48:30;22.40;81.10
46608;DHT22;32330;51.936;7.184;2023-05-25T13:50:56;21.90;82.90
46608;DHT22;32330;51.936;7.184;2023-05-25T13:53:25;22.10;82.90
46608;DHT22;32330;51.936;7.184;2023-05-25T13:55:52;22.00;82.20
46608;DHT22;32330;51.936;7.184;2023-05-25T13:58:19;22.10;82.40
46608;DHT22;32330;51.936;7.184;2023-05-25T14:00:49;22.00;81.00
46608;DHT22;32330;51.936;7.184;2023-05-25T14:03:17;22.60;81.50
46608;DHT22;32330;51.936;7.184;2023-05-25T14:05:45;22.90;82.30
46608;DHT22;32330;51.936;7.184;2023-05-25T14:08:12;22.90;80.00
46608;DHT22;32330;51.936;7.184;2023-05-25T14:10:40;22.40;80.10
46608;DHT22;32330;51.936;7.184;2023-05-25T14:13:08;22.50;80.80
46608;DHT22;32330;51.936;7.184;2023-05-25T14:15:35;22.40;80.30
46608;DHT22;32330;51.936;7.184;2023-05-25T14:18:02;23.20;80.70
46608;DHT22;32330;51.936;7.184;2023-05-25T14:20:29;23.50;79.10
46608;DHT22;32330;51.936;7.184;2023-05-25T14:23:01;23.00;79.10
46608;DHT22;32330;51.936;7.184;2023-05-25T14:25:28;22.60;80.00
46608;DHT22;32330;51.936;7.184;2023-05-25T14:27:57;22.50;80.10
46608;DHT22;32330;51.936;7.184;2023-05-25T14:30:23;23.10;79.00
46608;DHT22;32330;51.936;7.184;2023-05-25T14:32:50;23.50;77.90
46608;DHT22;32330;51.936;7.184;2023-05-25T14:35:17;23.60;78.90
46608;DHT22;32330;51.936;7.184;2023-05-25T14:37:44;24.00;77.00
46608;DHT22;32330;51.936;7.184;2023-05-25T14:40:11;24.10;76.40
46608;DHT22;32330;51.936;7.184;2023-05-25T14:42:38;24.30;76.10
46608;DHT22;32330;51.936;7.184;2023-05-25T14:45:07;24.00;75.30
46608;DHT22;32330;51.936;7.184;2023-05-25T14:47:34;23.30;77.70
46608;DHT22;32330;51.936;7.184;2023-05-25T14:50:01;23.30;78.80
46608;DHT22;32330;51.936;7.184;2023-05-25T14:52:28;23.20;77.70
46608;DHT22;32330;51.936;7.184;2023-05-25T14:54:55;23.90;77.50
46608;DHT22;32330;51.936;7.184;2023-05-25T14:57:25;24.30;76.90
46608;DHT22;32330;51.936;7.184;2023-05-25T14:59:54;24.50;75.30
46608;DHT22;32330;51.936;7.184;2023-05-25T15:02:27;24.50;74.10
46608;DHT22;32330;51.936;7.184;2023-05-25T15:04:57;24.70;75.00
46608;DHT22;32330;51.936;7.184;2023-05-25T15:07:24;24.70;74.20
46608;DHT22;32330;51.936;7.184;2023-05-25T15:09:51;24.70;74.10
46608;DHT22;32330;51.936;7.184;2023-05-25T15:12:17;24.60;75.10
46608;DHT22;32330;51.936;7.184;2023-05-25T15:14:58;24.30;74.00
46608;DHT22;32330;51.936;7.184;2023-05-25T15:20:17;24.10;75.40
46608;DHT22;32330;51.936;7.184;2023-05-25T15:22:44;24.50;75.20
46608;DHT22;32330;51.936;7.184;2023-05-25T15:25:11;24.30;74.10
46608;DHT22;32330;51.936;7.184;2023-05-25T15:27:38;24.50;75.20
46608;DHT22;32330;51.936;7.184;2023-05-25T15:30:08;25.00;74.60
46608;DHT22;32330;51.936;7.184;2023-05-25T15:32:35;25.00;74.00
46608;DHT22;32330;51.936;7.184;2023-05-25T15:35:02;24.70;74.20
46608;DHT22;32330;51.936;7.184;2023-05-25T15:37:30;24.50;74.60
46608;DHT22;32330;51.936;7.184;2023-05-25T15:39:57;25.00;75.00
46608;DHT22;32330;51.936;7.184;2023-05-25T15:42:24;24.90;72.60